Time;durP1;ratioP1;P1;durP2;ratioP2;P2;SDS_P1;SDS_P2;PMS_P1;PMS_P2;Temp;Humidity;BMP_temperature;BMP_pressure;BME280_temperature;BME280_humidity;BME280_pressure;Samples;Min_cycle;Max_cycle;Signal;HPM_P1;HPM_P2
2024/01/31 00:00:06;;;;;;;11.10;8.70;;;8.30;99.90;;;;;;5033556;28;20033;-64
2024/01/31 00:02:34;;;;;;;10.38;8.38;;;8.30;99.90;;;;;;5033494;28;20072;-64
2024/01/31 00:05:01;;;;;;;11.57;8.00;;;8.30;99.90;;;;;;5033375;28;20049;-64
2024/01/31 00:07:28;;;;;;;9.27;7.90;;;8.20;99.90;;;;;;5033323;28;20042;-63
2024/01/31 00:09:54;;;;;;;10.50;8.00;;;8.20;99.90;;;;;;5033380;28;20544;-63
2024/01/31 00:12:21;;;;;;;11.77;7.88;;;8.20;99.90;;;;;;5033642;28;20046;-63
2024/01/31 00:14:48;;;;;;;11.40;8.27;;;8.20;99.90;;;;;;5033383;28;20060;-62
2024/01/31 00:17:15;;;;;;;9.10;7.70;;;8.30;99.90;;;;;;5033363;28;20080;-63
2024/01/31 00:19:42;;;;;;;9.85;8.07;;;8.20;99.90;;;;;;5033555;28;20034;-65
2024/01/31 00:22:08;;;;;;;10.18;8.18;;;8.20;99.90;;;;;;5033306;28;20045;-65
2024/01/31 00:24:35;;;;;;;11.55;7.53;;;8.10;99.90;;;;;;5033310;28;20103;-65
2024/01/31 00:27:02;;;;;;;10.88;8.52;;;8.10;99.90;;;;;;5033341;28;20056;-65
2024/01/31 00:29:29;;;;;;;9.93;8.18;;;8.10;99.90;;;;;;5033122;28;20453;-64
2024/01/31 00:31:56;;;;;;;10.07;8.00;;;8.10;99.90;;;;;;5032914;28;20042;-64
2024/01/31 00:34:22;;;;;;;11.68;7.72;;;8.20;99.90;;;;;;5033017;28;20524;-63
2024/01/31 00:36:50;;;;;;;9.20;7.97;;;8.10;99.90;;;;;;5033550;28;20042;-65
2024/01/31 00:39:16;;;;;;;9.88;8.07;;;8.10;99.90;;;;;;5033063;28;20041;-63
2024/01/31 00:41:43;;;;;;;11.55;8.40;;;8.10;99.90;;;;;;5033265;28;20053;-65
2024/01/31 00:44:10;;;;;;;10.00;7.78;;;8.10;99.90;;;;;;5033014;28;20049;-64
2024/01/31 00:46:37;;;;;;;10.27;7.68;;;8.10;99.90;;;;;;5033148;28;20047;-65
2024/01/31 00:49:05;;;;;;;9.30;7.38;;;8.10;99.90;;;;;;5033392;28;20076;-63
2024/01/31 00:51:32;;;;;;;10.68;7.80;;;8.20;99.90;;;;;;5032660;28;20045;-65
2024/01/31 00:54:00;;;;;;;15.68;8.15;;;8.10;99.90;;;;;;5032978;28;20056;-63
2024/01/31 00:56:27;;;;;;;8.57;6.93;;;8.10;99.90;;;;;;5033140;28;20063;-63
2024/01/31 00:58:53;;;;;;;10.40;7.63;;;8.10;99.90;;;;;;5032810;28;20116;-65
2024/01/31 01:01:20;;;;;;;8.82;6.85;;;8.10;99.90;;;;;;5033234;28;20067;-65
2024/01/31 01:03:47;;;;;;;11.75;6.93;;;8.10;99.90;;;;;;5033213;28;20049;-63
2024/01/31 01:06:14;;;;;;;9.23;7.53;;;8.10;99.90;;;;;;5033276;28;20049;-65
2024/01/31 01:08:41;;;;;;;11.00;7.32;;;8.10;99.90;;;;;;5032876;28;20869;-65
2024/01/31 01:11:07;;;;;;;9.45;7.35;;;8.10;99.90;;;;;;5033457;28;20375;-64
2024/01/31 01:13:34;;;;;;;10.10;7.40;;;8.10;99.90;;;;;;5032539;28;20057;-63
2024/01/31 01:16:01;;;;;;;9.10;7.10;;;8.10;99.90;;;;;;5033200;28;20445;-65
2024/01/31 01:18:28;;;;;;;9.68;7.75;;;8.10;99.90;;;;;;5033176;28;20040;-63
2024/01/31 01:20:55;;;;;;;12.75;8.00;;;8.10;99.90;;;;;;5035112;28;20042;-63
2024/01/31 01:23:21;;;;;;;10.27;7.82;;;8.00;99.90;;;;;;5036590;28;20038;-65
2024/01/31 01:25:48;;;;;;;13.77;8.20;;;8.00;99.90;;;;;;5036429;28;20068;-65
2024/01/31 01:28:15;;;;;;;9.55;7.60;;;8.10;99.90;;;;;;5036397;28;20419;-63
2024/01/31 01:30:42;;;;;;;11.27;8.60;;;8.00;99.90;;;;;;5036522;28;20061;-65
2024/01/31 01:33:09;;;;;;;11.95;8.48;;;8.00;99.90;;;;;;5036499;28;20037;-63
2024/01/31 01:35:36;;;;;;;12.85;8.40;;;8.00;99.90;;;;;;5036630;28;20042;-63
2024/01/31 01:38:02;;;;;;;9.45;7.95;;;8.00;99.90;;;;;;5036526;28;20386;-65
2024/01/31 01:40:29;;;;;;;10.55;8.77;;;7.90;99.90;;;;;;5036281;28;20136;-65
2024/01/31 01:42:56;;;;;;;11.13;8.48;;;8.00;99.90;;;;;;5036126;28;20037;-65
2024/01/31 01:45:23;;;;;;;9.93;8.23;;;7.90;99.90;;;;;;5036387;28;20328;-65
2024/01/31 01:47:52;;;;;;;11.40;8.60;;;7.90;99.90;;;;;;5036049;28;20045;-64
2024/01/31 01:50:19;;;;;;;14.20;8.95;;;7.90;99.90;;;;;;5036228;28;20471;-65
2024/01/31 01:52:46;;;;;;;12.63;8.18;;;8.00;99.90;;;;;;5035984;28;20049;-65
2024/01/31 01:55:13;;;;;;;12.80;8.65;;;7.90;99.90;;;;;;5035976;28;20034;-65
2024/01/31 01:57:40;;;;;;;11.43;8.30;;;8.00;99.90;;;;;;5036048;28;20144;-63
2024/01/31 02:00:08;;;;;;;12.02;8.77;;;7.90;99.90;;;;;;5036132;28;20482;-63
2024/01/31 02:02:35;;;;;;;11.48;8.15;;;7.90;99.90;;;;;;5035425;28;20076;-63
2024/01/31 02:05:02;;;;;;;10.00;7.88;;;8.00;99.90;;;;;;5035780;28;20056;-63
2024/01/31 02:07:29;;;;;;;11.95;7.90;;;8.00;99.90;;;;;;5035549;28;20132;-63
2024/01/31 02:09:59;;;;;;;10.70;7.45;;;8.00;99.90;;;;;;5035729;28;20124;-63
2024/01/31 02:12:26;;;;;;;8.65;6.75;;;8.00;99.90;;;;;;5035780;28;20099;-65
2024/01/31 02:14:53;;;;;;;6.25;5.60;;;8.00;99.90;;;;;;5034224;28;20053;-65
2024/01/31 02:17:19;;;;;;;9.30;5.85;;;8.00;99.90;;;;;;5035381;28;20034;-65
2024/01/31 02:19:46;;;;;;;7.35;5.82;;;7.90;99.90;;;;;;5035285;28;20037;-64
2024/01/31 02:22:13;;;;;;;8.85;6.20;;;7.90;99.90;;;;;;5035536;28;20050;-65
2024/01/31 02:24:40;;;;;;;8.63;6.25;;;8.00;99.90;;;;;;5035325;28;20045;-65
2024/01/31 02:27:07;;;;;;;7.88;5.80;;;8.00;99.90;;;;;;5034256;28;20041;-65
2024/01/31 02:29:33;;;;;;;7.93;6.18;;;7.90;99.90;;;;;;5034290;28;20053;-65
2024/01/31 02:32:00;;;;;;;10.63;5.80;;;7.90;99.90;;;;;;5035554;28;20042;-65
2024/01/31 02:34:27;;;;;;;6.38;5.30;;;7.90;99.90;;;;;;5035196;28;20038;-65
2024/01/31 02:36:54;;;;;;;7.90;5.35;;;7.90;99.90;;;;;;5034868;28;20518;-65
2024/01/31 02:39:21;;;;;;;6.88;5.32;;;7.90;99.90;;;;;;5035254;28;20124;-65
2024/01/31 02:41:47;;;;;;;6.25;5.07;;;7.90;99.90;;;;;;5035388;28;20041;-65
2024/01/31 02:44:14;;;;;;;7.65;4.95;;;7.90;99.90;;;;;;5035200;28;20505;-65
2024/01/31 02:46:41;;;;;;;6.70;4.28;;;7.90;99.90;;;;;;5034841;28;20059;-65
2024/01/31 02:49:08;;;;;;;4.97;4.10;;;7.90;99.90;;;;;;5034969;28;20096;-65
2024/01/31 02:51:35;;;;;;;6.95;3.75;;;7.90;99.90;;;;;;5035131;28;20463;-65
2024/01/31 02:54:01;;;;;;;4.00;3.40;;;7.90;99.90;;;;;;5034536;28;20057;-65
2024/01/31 02:56:28;;;;;;;4.30;3.03;;;7.90;99.90;;;;;;5034781;28;20033;-65
2024/01/31 02:58:55;;;;;;;4.28;3.15;;;7.90;99.90;;;;;;5035161;28;20045;-65
2024/01/31 03:01:22;;;;;;;3.20;2.50;;;7.90;99.90;;;;;;5034921;28;20376;-65
2024/01/31 03:03:49;;;;;;;5.32;2.95;;;7.90;99.90;;;;;;5034800;28;20156;-63
2024/01/31 03:06:15;;;;;;;4.22;2.80;;;7.90;99.90;;;;;;5034935;28;20077;-63
2024/01/31 03:08:42;;;;;;;3.17;2.55;;;7.90;99.90;;;;;;5034837;28;20064;-63
2024/01/31 03:11:09;;;;;;;2.80;1.90;;;7.80;99.90;;;;;;5034827;28;20044;-63
2024/01/31 03:13:36;;;;;;;2.58;2.00;;;7.80;99.90;;;;;;5033795;28;20574;-63
2024/01/31 03:16:03;;;;;;;4.07;2.15;;;7.90;99.90;;;;;;5034780;28;20537;-63
2024/01/31 03:18:29;;;;;;;2.58;1.95;;;7.90;99.90;;;;;;5034298;28;20550;-64
2024/01/31 03:20:56;;;;;;;2.58;2.10;;;7.90;99.90;;;;;;5034677;28;20061;-63
2024/01/31 03:23:23;;;;;;;3.15;1.92;;;7.90;99.90;;;;;;5034435;28;20041;-63
2024/01/31 03:25:50;;;;;;;2.90;1.67;;;7.90;99.90;;;;;;5034716;28;20099;-63
2024/01/31 03:28:17;;;;;;;2.40;1.63;;;7.90;99.90;;;;;;5034356;28;20042;-64
2024/01/31 03:30:44;;;;;;;2.42;1.75;;;7.90;99.90;;;;;;5034226;28;20475;-63
2024/01/31 03:33:10;;;;;;;2.50;1.70;;;7.80;99.90;;;;;;5034095;28;20128;-63
2024/01/31 03:35:37;;;;;;;2.40;1.60;;;7.80;99.90;;;;;;5033867;28;20045;-63
2024/01/31 03:38:04;;;;;;;2.50;1.73;;;7.80;99.90;;;;;;5034250;28;20091;-63
2024/01/31 03:40:31;;;;;;;3.15;1.60;;;7.80;99.90;;;;;;5034163;28;20048;-63
2024/01/31 03:42:58;;;;;;;2.33;1.50;;;7.80;99.90;;;;;;5033655;28;20050;-63
2024/01/31 03:45:24;;;;;;;2.60;1.70;;;7.80;99.90;;;;;;5033831;28;20403;-63
2024/01/31 03:47:51;;;;;;;2.55;1.60;;;7.80;99.90;;;;;;5034062;28;20045;-63
2024/01/31 03:50:19;;;;;;;2.78;1.70;;;7.80;99.90;;;;;;5033733;28;20045;-63
2024/01/31 03:52:46;;;;;;;2.60;1.48;;;7.80;99.90;;;;;;5033563;28;20046;-63
2024/01/31 03:55:13;;;;;;;2.55;1.20;;;7.80;99.90;;;;;;5033513;28;20117;-63
2024/01/31 03:57:40;;;;;;;2.55;1.40;;;7.80;99.90;;;;;;5033793;28;20167;-63
2024/01/31 04:00:08;;;;;;;2.72;1.40;;;7.80;99.90;;;;;;5033719;28;20356;-62
2024/01/31 04:02:36;;;;;;;2.45;1.70;;;7.80;99.90;;;;;;5033756;28;20101;-63
2024/01/31 04:05:03;;;;;;;2.67;1.50;;;7.80;99.90;;;;;;5033603;28;20037;-63
2024/01/31 04:07:30;;;;;;;2.55;1.45;;;7.70;99.90;;;;;;5033586;28;20506;-63
2024/01/31 04:09:57;;;;;;;2.28;1.45;;;7.70;99.90;;;;;;5033854;28;20046;-63
2024/01/31 04:12:24;;;;;;;1.67;1.20;;;7.70;99.90;;;;;;5033806;28;20127;-64
2024/01/31 04:14:50;;;;;;;1.60;1.27;;;7.70;99.90;;;;;;5032996;28;20046;-63
2024/01/31 04:17:17;;;;;;;2.03;1.38;;;7.70;99.90;;;;;;5033835;28;20120;-63
2024/01/31 04:19:48;;;;;;;1.65;1.30;;;7.80;99.90;;;;;;5033629;28;20056;-63
2024/01/31 04:22:19;;;;;;;2.20;1.13;;;7.80;99.90;;;;;;5034195;28;20053;-63
2024/01/31 04:24:46;;;;;;;2.53;1.10;;;7.70;99.90;;;;;;5033743;28;20411;-63
2024/01/31 04:27:12;;;;;;;1.77;0.90;;;7.80;99.90;;;;;;5033728;28;20045;-63
2024/01/31 04:29:39;;;;;;;2.13;1.00;;;7.70;99.90;;;;;;5033320;28;20052;-63
2024/01/31 04:32:06;;;;;;;2.08;1.17;;;7.70;99.90;;;;;;5033397;28;20072;-63
2024/01/31 04:34:34;;;;;;;3.05;1.10;;;7.70;99.90;;;;;;5033162;28;20046;-64
2024/01/31 04:37:01;;;;;;;1.60;1.00;;;7.70;99.90;;;;;;5033703;28;20042;-64
2024/01/31 04:39:28;;;;;;;1.65;1.05;;;7.80;99.90;;;;;;5033018;28;20045;-63
2024/01/31 04:41:55;;;;;;;1.80;1.25;;;7.70;99.90;;;;;;5033305;28;20049;-64
2024/01/31 04:44:22;;;;;;;1.70;1.05;;;7.70;99.90;;;;;;5032988;28;20478;-63
2024/01/31 04:46:49;;;;;;;2.22;1.10;;;7.80;99.90;;;;;;5033656;28;20060;-63
2024/01/31 04:49:16;;;;;;;1.92;1.13;;;7.70;99.90;;;;;;5033370;28;20536;-63
2024/01/31 04:51:43;;;;;;;1.60;1.10;;;7.70;99.90;;;;;;5033224;28;20033;-63
2024/01/31 04:54:10;;;;;;;1.60;1.00;;;7.70;99.90;;;;;;5034301;28;20129;-63
2024/01/31 04:56:40;;;;;;;2.72;1.25;;;7.70;99.90;;;;;;5037596;28;20052;-63
2024/01/31 04:59:06;;;;;;;2.17;1.20;;;7.70;99.90;;;;;;5037377;28;20087;-63
2024/01/31 05:01:34;;;;;;;2.65;1.30;;;7.70;99.90;;;;;;5036817;28;20048;-63
2024/01/31 05:04:01;;;;;;;2.50;1.17;;;7.70;99.90;;;;;;5037007;28;20064;-63
2024/01/31 05:06:28;;;;;;;2.08;1.25;;;7.70;99.90;;;;;;5036742;28;20486;-63
2024/01/31 05:08:55;;;;;;;2.35;1.30;;;7.60;99.90;;;;;;5036775;28;20449;-63
2024/01/31 05:11:21;;;;;;;3.28;1.25;;;7.60;99.90;;;;;;5037040;28;20037;-63
2024/01/31 05:13:48;;;;;;;2.60;1.00;;;7.60;99.90;;;;;;5036468;28;20491;-63
2024/01/31 05:16:17;;;;;;;2.33;1.30;;;7.60;99.90;;;;;;5037188;28;20046;-63
2024/01/31 05:18:44;;;;;;;2.60;1.50;;;7.60;99.90;;;;;;5037111;28;20061;-63
2024/01/31 05:21:11;;;;;;;2.20;1.40;;;7.60;99.90;;;;;;5037084;28;20069;-63
2024/01/31 05:23:38;;;;;;;1.77;1.35;;;7.60;99.90;;;;;;5036446;28;20053;-63
2024/01/31 05:26:06;;;;;;;1.92;1.60;;;7.60;99.90;;;;;;5036975;28;20050;-63
2024/01/31 05:28:33;;;;;;;3.67;1.50;;;7.60;99.90;;;;;;5036583;28;20509;-63
2024/01/31 05:31:00;;;;;;;2.25;1.50;;;7.60;99.90;;;;;;5036771;28;20152;-63
2024/01/31 05:33:27;;;;;;;3.17;1.60;;;7.60;99.90;;;;;;5036422;28;20052;-63
2024/01/31 05:35:54;;;;;;;3.35;1.27;;;7.60;99.90;;;;;;5035105;28;20120;-63
2024/01/31 05:38:20;;;;;;;3.97;1.58;;;7.60;99.90;;;;;;5036334;28;20037;-63
2024/01/31 05:40:47;;;;;;;2.30;1.25;;;7.60;99.90;;;;;;5036415;28;20493;-63
2024/01/31 05:43:14;;;;;;;2.25;1.42;;;7.60;99.90;;;;;;5036510;28;20418;-63
2024/01/31 05:45:42;;;;;;;2.22;1.50;;;7.50;99.90;;;;;;5036484;28;20474;-63
2024/01/31 05:48:09;;;;;;;3.03;1.70;;;7.60;99.90;;;;;;5036507;28;20041;-63
2024/01/31 05:50:36;;;;;;;3.45;1.65;;;7.50;99.90;;;;;;5036087;28;20041;-62
2024/01/31 05:53:07;;;;;;;3.00;1.80;;;7.50;99.90;;;;;;5036025;28;20505;-63
2024/01/31 05:55:34;;;;;;;3.55;1.90;;;7.50;99.90;;;;;;5036004;28;20525;-63
2024/01/31 05:58:00;;;;;;;4.80;1.92;;;7.50;99.90;;;;;;5036312;28;20053;-63
2024/01/31 06:00:27;;;;;;;2.97;1.85;;;7.50;99.90;;;;;;5036010;28;20517;-63
2024/01/31 06:02:54;;;;;;;3.35;1.45;;;7.50;99.90;;;;;;5035582;28;20124;-62
2024/01/31 06:05:26;;;;;;;3.05;1.58;;;7.50;99.90;;;;;;5034962;28;20056;-63
2024/01/31 06:07:53;;;;;;;2.25;1.63;;;7.50;99.90;;;;;;5035635;28;20041;-63
2024/01/31 06:10:20;;;;;;;2.70;1.90;;;7.50;99.90;;;;;;5034616;28;20060;-63
2024/01/31 06:12:47;;;;;;;2.78;1.90;;;7.50;99.90;;;;;;5035553;28;20041;-62
2024/01/31 06:15:14;;;;;;;2.35;1.77;;;7.50;99.90;;;;;;5035345;28;20058;-61
2024/01/31 06:17:41;;;;;;;5.30;1.92;;;7.50;99.90;;;;;;5035345;28;20094;-62
2024/01/31 06:20:08;;;;;;;4.13;2.15;;;7.50;99.90;;;;;;5035357;28;20042;-62
2024/01/31 06:22:36;;;;;;;4.28;2.05;;;7.40;99.90;;;;;;5035180;28;20049;-62
2024/01/31 06:25:03;;;;;;;2.83;2.10;;;7.40;99.90;;;;;;5035316;28;20502;-62
2024/01/31 06:27:30;;;;;;;3.08;1.95;;;7.40;99.90;;;;;;5035835;28;20045;-62
2024/01/31 06:29:57;;;;;;;3.05;2.10;;;7.40;99.90;;;;;;5035534;28;20049;-62
2024/01/31 06:32:31;;;;;;;4.18;2.20;;;7.40;99.90;;;;;;5035252;28;20045;-62
2024/01/31 06:34:58;;;;;;;3.45;2.10;;;7.40;99.90;;;;;;5035191;28;20064;-62
2024/01/31 06:37:25;;;;;;;5.75;2.17;;;7.40;99.90;;;;;;5035622;28;20452;-62
2024/01/31 06:39:52;;;;;;;4.68;2.20;;;7.40;99.90;;;;;;5035083;28;20076;-62
2024/01/31 06:42:19;;;;;;;3.67;2.03;;;7.40;99.90;;;;;;5035077;28;20042;-62
2024/01/31 06:44:45;;;;;;;3.08;2.08;;;7.40;99.90;;;;;;5034873;28;20041;-62
2024/01/31 06:47:12;;;;;;;3.22;2.28;;;7.40;99.90;;;;;;5033476;28;20453;-62
2024/01/31 06:49:39;;;;;;;2.90;2.40;;;7.40;99.90;;;;;;5034929;28;20529;-62
2024/01/31 06:52:06;;;;;;;3.33;2.13;;;7.40;99.90;;;;;;5034923;28;20037;-61
2024/01/31 06:54:33;;;;;;;3.15;2.40;;;7.40;99.90;;;;;;5035179;28;20041;-62
2024/01/31 06:57:00;;;;;;;3.30;2.28;;;7.40;99.90;;;;;;5034630;28;20037;-62
2024/01/31 06:59:27;;;;;;;3.75;2.15;;;7.40;99.90;;;;;;5034750;28;20475;-62
2024/01/31 07:01:53;;;;;;;3.08;2.08;;;7.40;99.90;;;;;;5034926;28;20088;-62
2024/01/31 07:04:20;;;;;;;3.65;1.98;;;7.40;99.90;;;;;;5034825;28;20136;-61
2024/01/31 07:06:47;;;;;;;3.42;2.03;;;7.40;99.90;;;;;;5034922;28;20507;-62
2024/01/31 07:09:14;;;;;;;4.35;2.30;;;7.30;99.90;;;;;;5034539;28;20080;-61
2024/01/31 07:11:41;;;;;;;6.20;2.10;;;7.30;99.90;;;;;;5034713;28;20121;-63
2024/01/31 07:14:07;;;;;;;3.60;2.08;;;7.40;99.90;;;;;;5034048;28;20049;-62
2024/01/31 07:16:35;;;;;;;3.85;2.20;;;7.30;99.90;;;;;;5034802;28;20099;-62
2024/01/31 07:19:02;;;;;;;3.78;2.20;;;7.30;99.90;;;;;;5032758;28;20049;-62
2024/01/31 07:21:29;;;;;;;3.40;2.50;;;7.30;99.90;;;;;;5034782;28;20045;-62
2024/01/31 07:23:56;;;;;;;3.53;2.20;;;7.30;99.90;;;;;;5034596;28;20387;-63
2024/01/31 07:26:31;;;;;;;4.63;2.30;;;7.30;99.90;;;;;;5034439;28;20045;-62
2024/01/31 07:28:58;;;;;;;3.50;2.17;;;7.20;99.90;;;;;;5034225;28;20045;-62
2024/01/31 07:31:25;;;;;;;3.17;2.00;;;7.30;99.90;;;;;;5034388;28;20080;-62
2024/01/31 07:33:52;;;;;;;4.45;2.25;;;7.30;99.90;;;;;;5033722;28;20076;-62
2024/01/31 07:36:19;;;;;;;5.00;2.25;;;7.30;99.90;;;;;;5034132;28;20041;-62
2024/01/31 07:38:47;;;;;;;5.88;2.08;;;7.30;99.90;;;;;;5032603;28;20386;-61
2024/01/31 07:41:14;;;;;;;6.55;2.50;;;7.30;99.90;;;;;;5034280;28;20065;-61
2024/01/31 07:43:41;;;;;;;4.13;2.30;;;7.30;99.90;;;;;;5033836;28;20048;-61
2024/01/31 07:46:10;;;;;;;4.25;2.10;;;7.30;99.90;;;;;;5034173;28;20041;-62
2024/01/31 07:48:37;;;;;;;5.88;2.40;;;7.30;99.90;;;;;;5033629;28;20049;-62
2024/01/31 07:51:04;;;;;;;3.80;2.40;;;7.40;99.90;;;;;;5034126;28;20421;-62
2024/01/31 07:53:31;;;;;;;5.30;2.50;;;7.30;99.90;;;;;;5033386;28;20372;-63
2024/01/31 07:55:57;;;;;;;4.03;2.10;;;7.30;99.90;;;;;;5016415;28;20057;-63
2024/01/31 07:58:28;;;;;;;3.67;2.50;;;7.30;99.90;;;;;;5033964;28;20061;-63
2024/01/31 08:00:54;;;;;;;2.40;1.90;;;7.30;99.90;;;;;;5033573;28;20112;-62
2024/01/31 08:03:21;;;;;;;4.20;2.30;;;7.40;99.90;;;;;;5033623;28;20124;-62
2024/01/31 08:05:48;;;;;;;6.28;2.70;;;7.40;99.90;;;;;;5033560;28;20045;-62
2024/01/31 08:08:15;;;;;;;5.10;2.10;;;7.40;99.90;;;;;;5033392;28;20128;-62
2024/01/31 08:10:42;;;;;;;3.90;2.10;;;7.30;99.90;;;;;;5033803;28;20056;-62
2024/01/31 08:13:09;;;;;;;6.95;2.40;;;7.40;99.90;;;;;;5033609;28;20080;-64
2024/01/31 08:15:36;;;;;;;5.38;2.03;;;7.40;99.90;;;;;;5033380;28;20551;-64
2024/01/31 08:18:03;;;;;;;5.55;2.25;;;7.40;99.90;;;;;;5033672;28;20048;-63
2024/01/31 08:20:30;;;;;;;4.03;2.75;;;7.40;99.90;;;;;;5033221;28;20037;-64
2024/01/31 08:22:58;;;;;;;6.05;2.28;;;7.50;99.90;;;;;;5033243;28;20107;-62
2024/01/31 08:25:25;;;;;;;2.78;1.90;;;7.50;99.90;;;;;;5033594;28;20447;-63
2024/01/31 08:27:53;;;;;;;2.97;2.03;;;7.50;99.90;;;;;;5032242;28;20505;-63
2024/01/31 08:30:21;;;;;;;4.32;2.38;;;7.50;99.90;;;;;;5039159;28;20049;-63
2024/01/31 08:32:48;;;;;;;4.93;2.28;;;7.50;99.90;;;;;;5040306;28;20045;-63
2024/01/31 08:35:15;;;;;;;4.25;2.50;;;7.60;99.90;;;;;;5039729;28;20036;-63
2024/01/31 08:37:42;;;;;;;7.25;2.25;;;7.60;99.90;;;;;;5040154;28;20042;-62
2024/01/31 08:40:10;;;;;;;4.03;2.45;;;7.60;99.90;;;;;;5039551;28;20051;-63
2024/01/31 08:42:39;;;;;;;4.82;2.65;;;7.60;99.90;;;;;;5040128;28;20538;-62
2024/01/31 08:45:07;;;;;;;6.47;3.85;;;7.60;99.90;;;;;;5043902;28;20148;-63
2024/01/31 08:47:34;;;;;;;7.68;2.90;;;7.60;99.90;;;;;;5047813;28;20091;-63
2024/01/31 08:50:01;;;;;;;7.43;2.67;;;7.70;99.90;;;;;;5052935;28;20044;-63
2024/01/31 08:52:28;;;;;;;5.22;2.67;;;7.70;99.90;;;;;;5059902;28;20044;-63
2024/01/31 08:54:55;;;;;;;6.50;2.30;;;7.70;99.90;;;;;;5060042;28;20037;-64
2024/01/31 08:57:22;;;;;;;5.20;2.72;;;7.70;99.90;;;;;;5059552;28;20521;-63
2024/01/31 08:59:49;;;;;;;4.30;2.50;;;7.70;99.90;;;;;;5059984;28;20052;-63
2024/01/31 09:02:16;;;;;;;4.05;2.50;;;7.70;99.90;;;;;;5059821;28;20045;-63
2024/01/31 09:04:43;;;;;;;7.85;2.70;;;7.70;99.90;;;;;;5059791;28;20045;-63
2024/01/31 09:07:09;;;;;;;6.45;2.70;;;7.70;99.90;;;;;;5059842;28;20041;-64
2024/01/31 09:09:39;;;;;;;7.00;2.80;;;7.80;99.90;;;;;;5059929;28;20079;-63
2024/01/31 09:12:06;;;;;;;5.20;2.75;;;7.80;99.90;;;;;;5059901;28;20044;-63
2024/01/31 09:14:33;;;;;;;5.40;2.88;;;7.80;99.90;;;;;;5058782;28;20062;-63
2024/01/31 09:17:00;;;;;;;7.20;2.90;;;7.90;99.90;;;;;;5059228;28;20477;-64
2024/01/31 09:19:27;;;;;;;5.65;2.47;;;7.90;99.90;;;;;;5059366;28;20119;-63
2024/01/31 09:21:54;;;;;;;5.32;3.40;;;7.90;99.90;;;;;;5059505;28;20037;-64
2024/01/31 09:24:20;;;;;;;4.30;2.65;;;8.00;99.90;;;;;;5059963;28;20044;-63
2024/01/31 09:26:47;;;;;;;3.42;2.15;;;8.00;99.90;;;;;;5059172;28;20045;-63
2024/01/31 09:29:14;;;;;;;4.95;2.65;;;8.00;99.90;;;;;;5059540;28;20044;-63
2024/01/31 09:31:41;;;;;;;9.00;2.80;;;8.00;99.90;;;;;;5058120;28;20042;-63
2024/01/31 09:34:08;;;;;;;3.92;2.50;;;8.00;99.90;;;;;;5047396;28;20033;-63
2024/01/31 09:36:35;;;;;;;5.00;2.92;;;8.00;99.90;;;;;;5056801;28;20033;-63
2024/01/31 09:39:03;;;;;;;5.35;2.67;;;8.00;99.90;;;;;;5042822;28;20036;-63
2024/01/31 09:41:30;;;;;;;5.47;2.30;;;8.10;99.90;;;;;;5035281;28;20132;-63
2024/01/31 09:43:57;;;;;;;5.75;2.58;;;8.10;99.90;;;;;;5035764;28;20037;-63
2024/01/31 09:46:24;;;;;;;4.80;2.38;;;8.10;99.90;;;;;;5036371;28;20053;-63
2024/01/31 09:48:51;;;;;;;3.75;2.50;;;8.10;99.90;;;;;;5036464;28;20532;-63
2024/01/31 09:51:18;;;;;;;6.22;2.70;;;8.10;99.90;;;;;;5035572;28;20042;-63
2024/01/31 09:53:45;;;;;;;6.57;2.50;;;8.20;99.90;;;;;;5035991;28;20095;-63
2024/01/31 09:56:11;;;;;;;4.18;2.60;;;8.20;99.90;;;;;;5036007;28;20099;-63
2024/01/31 09:58:38;;;;;;;7.22;2.90;;;8.20;99.90;;;;;;5035227;28;20037;-64
2024/01/31 10:01:05;;;;;;;4.18;2.33;;;8.30;99.90;;;;;;5033768;28;20042;-63
2024/01/31 10:03:43;;;;;;;4.00;2.38;;;8.30;99.90;;;;;;5034043;28;20053;-64
2024/01/31 10:06:10;;;;;;;4.90;2.42;;;8.30;99.90;;;;;;5036333;28;20057;-64
2024/01/31 10:08:38;;;;;;;6.53;2.30;;;8.30;99.90;;;;;;5035566;28;20045;-64
2024/01/31 10:11:05;;;;;;;6.88;2.97;;;8.40;99.90;;;;;;5035924;28;20574;-63
2024/01/31 10:13:32;;;;;;;5.38;2.70;;;8.40;99.90;;;;;;5035312;28;20034;-63
2024/01/31 10:15:59;;;;;;;4.20;2.42;;;8.40;99.90;;;;;;5035535;28;20049;-63
2024/01/31 10:18:27;;;;;;;5.05;2.40;;;8.40;99.90;;;;;;5035795;28;20041;-64
2024/01/31 10:20:56;;;;;;;5.45;2.50;;;8.40;99.90;;;;;;5035689;28;20042;-63
2024/01/31 10:23:23;;;;;;;4.75;2.30;;;8.40;99.90;;;;;;5035463;28;20116;-63
2024/01/31 10:25:50;;;;;;;4.80;2.03;;;8.40;99.90;;;;;;5035658;28;20045;-63
2024/01/31 10:28:20;;;;;;;7.20;1.88;;;8.40;99.90;;;;;;5035556;28;20045;-64
2024/01/31 10:30:46;;;;;;;3.25;1.90;;;8.40;99.90;;;;;;5035266;28;20046;-63
2024/01/31 10:33:13;;;;;;;4.55;2.15;;;8.40;99.90;;;;;;5035263;28;20112;-63
2024/01/31 10:35:40;;;;;;;7.38;1.92;;;8.40;99.90;;;;;;5035031;28;20038;-63
2024/01/31 10:38:27;;;;;;;5.00;1.63;;;8.40;99.90;;;;;;5034003;28;20038;-63
2024/01/31 10:40:54;;;;;;;4.78;2.22;;;8.50;99.90;;;;;;5033938;28;20069;-63
2024/01/31 10:43:22;;;;;;;4.28;2.00;;;8.50;99.90;;;;;;5035481;28;20046;-64
2024/01/31 10:45:48;;;;;;;5.28;1.95;;;8.60;99.90;;;;;;5035411;28;20041;-64
2024/01/31 10:48:16;;;;;;;4.82;1.92;;;8.70;99.90;;;;;;5035134;28;20048;-63
2024/01/31 10:50:43;;;;;;;4.32;1.85;;;8.60;99.90;;;;;;5034789;28;20060;-64
2024/01/31 10:53:10;;;;;;;5.30;2.03;;;8.70;99.90;;;;;;5034633;28;20053;-64
2024/01/31 10:55:37;;;;;;;4.78;1.77;;;8.70;99.90;;;;;;5034669;28;20593;-64
2024/01/31 10:58:04;;;;;;;5.55;1.80;;;8.70;99.90;;;;;;5035005;28;20051;-64
2024/01/31 11:00:30;;;;;;;5.38;1.90;;;8.70;99.90;;;;;;5035102;28;20041;-65
2024/01/31 11:02:58;;;;;;;4.00;1.88;;;8.70;99.90;;;;;;5035196;28;20045;-64
2024/01/31 11:05:25;;;;;;;7.78;2.13;;;8.60;99.90;;;;;;5035037;28;20037;-65
2024/01/31 11:07:52;;;;;;;6.40;2.00;;;8.60;99.90;;;;;;5034864;28;20479;-65
2024/01/31 11:10:18;;;;;;;6.05;1.90;;;8.60;99.90;;;;;;5034459;28;20062;-65
2024/01/31 11:12:45;;;;;;;6.32;1.80;;;8.60;99.90;;;;;;5034667;28;20041;-64
2024/01/31 11:15:12;;;;;;;6.00;1.27;;;8.60;99.90;;;;;;5034109;28;20069;-64
2024/01/31 11:17:44;;;;;;;7.75;1.58;;;8.60;99.90;;;;;;5033622;28;20108;-63
2024/01/31 11:20:11;;;;;;;5.13;1.30;;;8.60;99.90;;;;;;5034631;28;20042;-63
2024/01/31 11:22:38;;;;;;;6.47;1.58;;;8.60;99.90;;;;;;5033468;28;20030;-63
2024/01/31 11:25:05;;;;;;;5.80;1.33;;;8.60;99.90;;;;;;5034466;28;20041;-63
2024/01/31 11:27:32;;;;;;;5.80;1.48;;;8.70;99.90;;;;;;5033339;28;20049;-63
2024/01/31 11:29:58;;;;;;;4.85;1.60;;;8.70;99.90;;;;;;5034555;28;20088;-63
2024/01/31 11:32:26;;;;;;;4.65;1.40;;;8.80;99.90;;;;;;5033940;28;20076;-63
2024/01/31 11:34:53;;;;;;;5.13;1.25;;;8.70;99.90;;;;;;5042534;28;20121;-63
2024/01/31 11:37:20;;;;;;;5.97;1.20;;;8.80;99.90;;;;;;5053836;28;20048;-64
2024/01/31 11:39:47;;;;;;;5.60;1.55;;;8.80;99.90;;;;;;5040626;28;20029;-64
2024/01/31 11:42:14;;;;;;;5.63;1.60;;;8.80;99.90;;;;;;5032982;28;20044;-64
2024/01/31 11:44:41;;;;;;;4.95;1.52;;;8.90;99.90;;;;;;5033160;28;20081;-64
2024/01/31 11:47:08;;;;;;;2.75;1.15;;;8.90;99.90;;;;;;5032522;28;20371;-64
2024/01/31 11:49:35;;;;;;;6.70;1.58;;;9.00;99.90;;;;;;5032955;28;20121;-63
2024/01/31 11:52:03;;;;;;;7.40;1.67;;;9.00;99.90;;;;;;5034070;28;20041;-62
2024/01/31 11:54:31;;;;;;;5.85;1.50;;;8.90;99.90;;;;;;5032816;28;20041;-62
2024/01/31 11:56:58;;;;;;;6.75;1.85;;;9.00;99.90;;;;;;5034031;28;20034;-62
2024/01/31 11:59:25;;;;;;;4.80;1.58;;;9.00;99.90;;;;;;5032812;28;20044;-62
2024/01/31 12:01:51;;;;;;;6.65;1.85;;;9.00;99.90;;;;;;5033342;28;20038;-63
2024/01/31 12:04:18;;;;;;;6.07;1.67;;;9.00;99.90;;;;;;5032205;28;20495;-63
2024/01/31 12:06:45;;;;;;;8.05;2.03;;;9.00;99.90;;;;;;5033917;28;20477;-64
2024/01/31 12:09:13;;;;;;;6.70;1.52;;;9.00;99.90;;;;;;5033271;28;20045;-63
2024/01/31 12:11:40;;;;;;;6.35;1.88;;;8.90;99.90;;;;;;5033188;28;20037;-62
2024/01/31 12:14:07;;;;;;;6.53;1.98;;;8.90;99.90;;;;;;5032228;28;20368;-63
2024/01/31 12:16:34;;;;;;;8.07;2.05;;;8.90;99.90;;;;;;5032732;28;20469;-61
2024/01/31 12:19:01;;;;;;;7.53;1.70;;;8.80;99.90;;;;;;5033324;28;20045;-64
2024/01/31 12:21:28;;;;;;;11.02;2.08;;;8.80;99.90;;;;;;5032540;28;20099;-62
2024/01/31 12:23:55;;;;;;;10.75;1.88;;;8.90;99.90;;;;;;5032852;28;20076;-61
2024/01/31 12:26:22;;;;;;;7.38;1.83;;;9.00;99.90;;;;;;5032470;28;20061;-63
2024/01/31 12:28:49;;;;;;;7.80;1.75;;;9.10;99.90;;;;;;5033294;28;20045;-63
2024/01/31 12:31:16;;;;;;;6.38;1.90;;;9.20;99.90;;;;;;5032265;28;20060;-63
2024/01/31 12:33:42;;;;;;;8.18;1.50;;;9.30;99.90;;;;;;5032926;28;20123;-63
2024/01/31 12:36:09;;;;;;;7.32;1.75;;;9.30;99.90;;;;;;5033751;28;20088;-63
2024/01/31 12:38:38;;;;;;;5.68;1.70;;;9.40;99.90;;;;;;5031903;28;20131;-65
2024/01/31 12:41:05;;;;;;;8.27;1.50;;;9.40;99.90;;;;;;5033827;28;20045;-64
2024/01/31 12:43:32;;;;;;;10.45;1.90;;;9.40;99.90;;;;;;5032250;28;20045;-64
2024/01/31 12:45:59;;;;;;;8.43;1.45;;;9.50;99.90;;;;;;5029988;28;20038;-64
2024/01/31 12:48:26;;;;;;;8.48;1.80;;;9.60;99.90;;;;;;5032447;28;20116;-64
2024/01/31 12:50:53;;;;;;;8.82;1.52;;;9.50;99.90;;;;;;5033394;28;20382;-63
2024/01/31 12:53:20;;;;;;;8.00;1.33;;;9.50;99.90;;;;;;5031026;28;20090;-62